Terminal Aerodrome Forecast
Issued by NWS

Home | Current Version | Previous Version | Text Only | Print | Product List | Glossary On
Versions: 1 2 3 4 5 6 7 8 9 10 11 12 13 14 15 16 17 18 19
000
FTPQ31 PGUM 012300
TAFPQ
TAF

PTRO 012328Z 0200/0224 25013G23KT 6SM SHRA BKN015 BKN110
      TEMPO 0200/0203 3SM TSRA OVC015CB
     FM020500 24012G18KT P6SM VCSH SCT016 SCT030 BKN120=

USA.gov is the U.S. government's official web portal to all federal, state and local government web resources and services.